Danville, VA

2:37 PM EDT on September 18, 2014 (GMT -0400)
Reidsville | Change Station
CLOSE
Current Station
Airport
Location: Reidsville,
Elevation: 692 ft
Nearby Weather Stations

Elev 692 ft 36.44 °N, 79.85 °W | Updated 22 minutes ago

Partly Cloudy
Partly Cloudy
72 °F
Feels Like 72 °F
N
0
Wind Variable Wind from North

Today
High -- | Low -- °F
--% Chance of Precip.
Yesterday
High -- | Low -- °F
Precip. -- in
7:02 AM 7:20 PM
Waning Crescent, 25% visible
Pressure 30.02 in
Visibility 5.0 miles
Clouds Overcast 6000 ft
Dew Point 64 °F
Humidity 75%
Rainfall 0.00 in
Snow Depth Not available.
UV 2 out of 12
Pollen 6.10 out of 12
Air Quality Not available.
Flu Activity Not available.
METAR KSIF 181815Z AUTO 00000KT 5SM HZ OVC060 22/18 A3002 RMK AO2 T02240177

More Conditions Fewer Conditions

Pressure 30.02 in
Visibility 5.0 miles
Clouds Overcast 6000 ft
Dew Point 64 °F
Humidity 75%
Rainfall 0.00 in
Snow Depth Not available.
UV 2 out of 12
Pollen 6.10 out of 12
Air Quality Not available.
Flu Activity Not available.
METAR KSIF 181815Z AUTO 00000KT 5SM HZ OVC060 22/18 A3002 RMK AO2 T02240177

More Conditions Fewer Conditions

10-Day Weather Forecast

Almanac

Astronomy

Sep. 18, 2014 Rise Set
Actual Time 7:02 AM EDT 7:20 PM EDT
Civil Twilight 6:36 AM EDT 7:46 PM EDT
Nautical Twilight 6:06 AM EDT 8:16 PM EDT
Astronomical Twilight 5:35 AM EDT 8:47 PM EDT
Moon 1:59 AM EDT 4:04 PM EDT
Length of Visible Light 13h 09m
Length of Day
12h 18m
Tomorrow will be 2m 18s shorter.
Waning Crescent, 25% of the Moon is Illuminated
Today
Waning Crescent
Sep 24
New
Oct 1
First Quarter
Oct 8
Full
Oct 15
Last Quarter

Today's Extremes

State Highs State Lows

Community

WunderPhotos

Upload Photos

1,754,417 photos uploaded!

WunderBlogs® & News

Nearby

Snow Depth

Station Depth Elevation
No new snow has been reported.

Earthquake Activity

City Distance Mag. Time & Date
No recent earthquake activity has been reported nearby.
Minimum magnitude displayed is 2.5.

Coastal Water Temperatures

Place Temperature
No Stations Reporting

Nearby Weather Stations